Time;durP1;ratioP1;P1;durP2;ratioP2;P2;SDS_P1;SDS_P2;PMS_P1;PMS_P2;Temp;Humidity;BMP_temperature;BMP_pressure;BME280_temperature;BME280_humidity;BME280_pressure;Samples;Min_cycle;Max_cycle;Signal;HPM_P1;HPM_P2
2022/10/15 00:02:19;;;;;;;42.13;28.47;;;12.40;99.90;;;;;;5113283;28;20185;-72
2022/10/15 00:04:47;;;;;;;41.07;27.47;;;12.40;99.90;;;;;;5113692;28;20249;-74
2022/10/15 00:07:12;;;;;;;44.00;28.80;;;12.40;99.90;;;;;;5095213;28;20628;-73
2022/10/15 00:09:38;;;;;;;40.80;28.87;;;12.40;99.90;;;;;;5113243;28;20439;-72
2022/10/15 00:12:04;;;;;;;40.23;26.77;;;12.40;99.90;;;;;;5113408;28;20200;-72
2022/10/15 00:14:29;;;;;;;40.67;27.20;;;12.50;99.90;;;;;;5095341;28;20200;-74
2022/10/15 00:16:55;;;;;;;40.60;29.37;;;12.40;99.90;;;;;;5113302;28;20408;-72
2022/10/15 00:19:20;;;;;;;39.13;27.03;;;12.40;99.90;;;;;;5095224;28;20270;-72
2022/10/15 00:21:46;;;;;;;41.63;27.30;;;12.40;99.90;;;;;;5115879;28;20579;-74
2022/10/15 00:24:12;;;;;;;34.23;24.43;;;12.40;99.90;;;;;;5098707;28;20235;-72
2022/10/15 00:26:37;;;;;;;35.27;26.13;;;12.40;99.90;;;;;;5098749;28;20640;-72
2022/10/15 00:29:03;;;;;;;39.10;27.20;;;12.40;99.90;;;;;;5098738;28;20203;-72
2022/10/15 00:31:30;;;;;;;37.60;24.67;;;12.40;99.90;;;;;;5116814;28;20191;-72
2022/10/15 00:33:58;;;;;;;40.57;25.70;;;12.40;99.90;;;;;;5117251;28;21002;-72
2022/10/15 00:36:26;;;;;;;36.70;25.53;;;12.40;99.90;;;;;;5098716;28;20428;-73
2022/10/15 00:38:52;;;;;;;38.80;26.50;;;12.30;99.90;;;;;;5117152;28;20999;-72
2022/10/15 00:41:20;;;;;;;39.50;26.40;;;12.30;99.90;;;;;;5097890;28;20442;-72
2022/10/15 00:43:49;;;;;;;36.93;25.53;;;12.30;99.90;;;;;;5116525;28;20420;-73
2022/10/15 00:46:38;;;;;;;36.83;25.30;;;12.30;99.90;;;;;;5116553;28;20519;-72
2022/10/15 00:49:24;;;;;;;36.13;25.43;;;12.30;99.90;;;;;;5101633;28;20427;-73
2022/10/15 00:52:16;;;;;;;42.70;26.00;;;12.20;99.90;;;;;;5098133;28;20768;-72
2022/10/15 00:55:22;;;;;;;37.80;26.35;;;12.20;99.90;;;;;;5098125;28;20435;-72
2022/10/15 00:57:49;;;;;;;39.13;25.47;;;12.10;99.90;;;;;;5084689;28;20192;-73
2022/10/15 01:00:17;;;;;;;38.23;25.33;;;12.00;99.90;;;;;;5116043;28;20439;-72
2022/10/15 01:02:43;;;;;;;36.43;25.77;;;12.00;99.90;;;;;;5097688;28;20419;-73
2022/10/15 01:05:10;;;;;;;38.63;27.20;;;11.90;99.90;;;;;;5098007;28;20523;-73
2022/10/15 01:07:35;;;;;;;34.57;23.90;;;11.90;99.90;;;;;;5116313;28;20184;-72
2022/10/15 01:10:02;;;;;;;34.10;24.30;;;11.80;99.90;;;;;;5116295;28;20424;-72
2022/10/15 01:13:08;;;;;;;31.55;24.65;;;11.80;99.90;;;;;;5097782;28;20574;-73
2022/10/15 01:15:47;;;;;;;29.25;23.95;;;11.70;99.90;;;;;;5097672;28;20231;-72
2022/10/15 01:18:48;;;;;;;32.88;24.17;;;11.70;99.90;;;;;;5097566;28;20184;-73
2022/10/15 01:21:41;;;;;;;27.15;21.73;;;11.60;99.90;;;;;;5098083;28;20203;-73
2022/10/15 01:24:50;;;;;;;28.85;23.00;;;11.60;99.90;;;;;;5116339;28;20283;-72
2022/10/15 01:27:37;;;;;;;31.65;22.98;;;11.60;99.90;;;;;;5115766;28;20188;-73
2022/10/15 01:30:25;;;;;;;32.70;23.88;;;11.50;99.90;;;;;;5115563;28;20271;-73
2022/10/15 01:33:03;;;;;;;32.90;22.65;;;11.50;99.90;;;;;;5096524;28;20219;-73
2022/10/15 01:35:47;;;;;;;28.63;22.40;;;11.50;99.90;;;;;;5115583;28;20180;-73
2022/10/15 01:38:32;;;;;;;30.30;21.80;;;11.40;99.90;;;;;;5115807;28;20179;-73
2022/10/15 01:41:19;;;;;;;31.30;22.70;;;11.40;99.90;;;;;;5114232;28;20208;-73
2022/10/15 01:43:59;;;;;;;34.03;23.38;;;11.40;99.90;;;;;;5115374;28;20213;-73
2022/10/15 01:46:41;;;;;;;34.40;24.90;;;11.40;99.90;;;;;;5115402;28;20694;-73
2022/10/15 01:49:10;;;;;;;29.95;23.45;;;11.30;99.90;;;;;;5097225;28;20274;-73
2022/10/15 01:51:38;;;;;;;32.60;23.02;;;11.30;99.90;;;;;;5115311;28;20220;-72
2022/10/15 01:54:06;;;;;;;30.60;22.50;;;11.30;99.90;;;;;;5115806;28;20311;-72
2022/10/15 01:56:35;;;;;;;33.15;24.45;;;11.30;99.90;;;;;;5115181;28;20179;-73
2022/10/15 01:59:02;;;;;;;33.90;23.83;;;11.20;99.90;;;;;;5097056;28;20188;-73
2022/10/15 02:01:28;;;;;;;30.75;21.98;;;11.20;99.90;;;;;;5114912;28;20195;-72
2022/10/15 02:03:53;;;;;;;29.20;21.17;;;11.20;99.90;;;;;;5115700;28;20176;-73
2022/10/15 02:06:35;;;;;;;27.43;20.53;;;11.20;99.90;;;;;;5096613;28;20192;-73
2022/10/15 02:09:15;;;;;;;31.77;22.38;;;11.20;99.90;;;;;;5115710;28;20233;-73
2022/10/15 02:12:11;;;;;;;29.65;21.90;;;11.10;99.90;;;;;;5114947;28;20164;-73
2022/10/15 02:14:54;;;;;;;30.23;22.50;;;11.10;99.90;;;;;;5072451;28;20219;-74
2022/10/15 02:17:30;;;;;;;30.83;21.33;;;11.10;99.90;;;;;;5115095;28;20322;-73
2022/10/15 02:20:04;;;;;;;28.73;21.45;;;11.10;99.90;;;;;;5114695;28;20652;-73
2022/10/15 02:23:02;;;;;;;28.65;22.58;;;11.00;99.90;;;;;;5114446;28;20180;-73
2022/10/15 02:25:28;;;;;;;29.15;21.27;;;11.00;99.90;;;;;;5114229;28;20204;-72
2022/10/15 02:27:56;;;;;;;26.85;21.40;;;11.00;99.90;;;;;;5114786;28;20222;-73
2022/10/15 02:30:23;;;;;;;23.67;19.70;;;11.00;99.90;;;;;;5114560;28;20248;-72
2022/10/15 02:32:52;;;;;;;30.55;21.23;;;10.90;99.90;;;;;;5096467;28;20215;-72
2022/10/15 02:35:19;;;;;;;30.00;20.67;;;10.90;99.90;;;;;;5096105;28;20192;-74
2022/10/15 02:37:48;;;;;;;33.47;22.90;;;10.80;99.90;;;;;;5114875;28;20624;-73
2022/10/15 02:40:14;;;;;;;33.30;23.98;;;10.80;99.90;;;;;;5114330;28;20693;-73
2022/10/15 02:42:40;;;;;;;29.00;21.30;;;10.80;99.90;;;;;;5114139;28;20184;-73
2022/10/15 02:45:06;;;;;;;28.07;20.60;;;10.80;99.90;;;;;;5114312;28;20231;-73
2022/10/15 02:47:31;;;;;;;29.45;20.63;;;10.80;99.90;;;;;;5096120;28;20180;-72
2022/10/15 02:49:57;;;;;;;26.90;21.83;;;10.80;99.90;;;;;;5114235;28;20188;-73
2022/10/15 02:52:22;;;;;;;25.90;20.50;;;10.80;99.90;;;;;;5114287;28;20301;-73
2022/10/15 02:54:48;;;;;;;27.50;22.30;;;10.70;99.90;;;;;;5114126;28;20190;-73
2022/10/15 02:57:14;;;;;;;24.00;20.23;;;10.70;99.90;;;;;;5096097;28;20257;-72
2022/10/15 02:59:39;;;;;;;29.57;20.90;;;10.70;99.90;;;;;;5114121;28;20194;-72
2022/10/15 03:02:05;;;;;;;26.93;20.63;;;10.70;99.90;;;;;;5113865;28;20250;-72
2022/10/15 03:04:30;;;;;;;25.30;20.23;;;10.70;99.90;;;;;;5095979;28;20192;-73
2022/10/15 03:06:56;;;;;;;26.40;19.97;;;10.70;99.90;;;;;;5113935;28;20232;-73
2022/10/15 03:09:22;;;;;;;22.20;18.67;;;10.60;99.90;;;;;;5095982;28;20176;-73
2022/10/15 03:11:47;;;;;;;25.40;19.27;;;10.60;99.90;;;;;;5113947;28;20164;-73
2022/10/15 03:14:13;;;;;;;25.77;19.77;;;10.60;99.90;;;;;;5114550;28;20180;-73
2022/10/15 03:16:38;;;;;;;25.20;20.73;;;10.60;99.90;;;;;;5113711;28;20247;-73
2022/10/15 03:19:04;;;;;;;26.50;20.10;;;10.60;99.90;;;;;;5114522;28;20187;-73
2022/10/15 03:21:30;;;;;;;24.90;19.87;;;10.60;99.90;;;;;;5095458;28;20187;-72
2022/10/15 03:23:57;;;;;;;27.13;20.87;;;10.50;99.90;;;;;;5095449;28;20268;-73
2022/10/15 03:26:23;;;;;;;28.20;19.30;;;10.50;99.90;;;;;;5114076;28;20744;-72
2022/10/15 03:28:48;;;;;;;29.17;21.10;;;10.50;99.90;;;;;;5095769;28;20216;-73
2022/10/15 03:31:14;;;;;;;26.97;19.43;;;10.50;99.90;;;;;;5113724;28;20412;-73
2022/10/15 03:33:40;;;;;;;30.00;22.83;;;10.50;99.90;;;;;;5114355;28;20312;-73
2022/10/15 03:36:06;;;;;;;26.70;20.43;;;10.50;99.90;;;;;;5113508;28;20196;-73
2022/10/15 03:38:32;;;;;;;30.60;22.65;;;10.50;99.90;;;;;;5095570;28;20183;-72
2022/10/15 03:40:58;;;;;;;28.93;22.13;;;10.50;99.90;;;;;;5095406;28;20207;-72
2022/10/15 03:43:24;;;;;;;27.97;20.67;;;10.50;99.90;;;;;;5114187;28;20180;-72
2022/10/15 03:45:50;;;;;;;30.77;20.88;;;10.40;99.90;;;;;;5113824;28;20206;-72
2022/10/15 03:48:16;;;;;;;32.33;21.95;;;10.40;99.90;;;;;;5113860;28;20188;-72
2022/10/15 03:50:41;;;;;;;32.57;22.20;;;10.40;99.90;;;;;;5113633;28;20199;-73
2022/10/15 03:53:07;;;;;;;29.37;21.30;;;10.40;99.90;;;;;;5113722;28;20219;-73
2022/10/15 03:55:33;;;;;;;29.97;21.67;;;10.40;99.90;;;;;;5114627;28;20231;-73
2022/10/15 03:57:59;;;;;;;31.60;22.60;;;10.30;99.90;;;;;;5117361;28;20508;-72
2022/10/15 04:00:24;;;;;;;34.27;24.17;;;10.30;99.90;;;;;;5099239;28;20199;-73
2022/10/15 04:02:50;;;;;;;34.73;22.63;;;10.30;99.90;;;;;;5099159;28;20179;-72
2022/10/15 04:05:16;;;;;;;50.30;31.47;;;10.30;99.90;;;;;;5099207;28;20237;-75
2022/10/15 04:07:41;;;;;;;40.23;26.10;;;10.30;99.90;;;;;;5117586;28;20172;-72
2022/10/15 04:10:07;;;;;;;35.17;25.70;;;10.30;99.90;;;;;;5117449;28;20210;-73
2022/10/15 04:12:33;;;;;;;28.10;20.13;;;10.30;99.90;;;;;;5098762;28;20216;-73
2022/10/15 04:14:59;;;;;;;34.47;23.17;;;10.30;99.90;;;;;;5098934;28;20198;-73
2022/10/15 04:17:25;;;;;;;29.40;22.60;;;10.20;99.90;;;;;;5098695;28;20420;-72
2022/10/15 04:19:50;;;;;;;32.60;22.70;;;10.20;99.90;;;;;;5117215;28;20236;-72
2022/10/15 04:22:16;;;;;;;29.60;21.07;;;10.20;99.90;;;;;;5117148;28;20172;-72
2022/10/15 04:24:42;;;;;;;32.27;22.80;;;10.20;99.90;;;;;;5117163;28;20231;-72
2022/10/15 04:27:07;;;;;;;31.97;22.00;;;10.20;99.90;;;;;;5098638;28;20175;-72
2022/10/15 04:29:33;;;;;;;33.30;22.13;;;10.20;99.90;;;;;;5116965;28;20561;-73
2022/10/15 04:31:59;;;;;;;30.03;20.07;;;10.10;99.90;;;;;;5098511;28;20592;-73
2022/10/15 04:34:24;;;;;;;30.13;21.10;;;10.10;99.90;;;;;;5116991;28;20405;-73
2022/10/15 04:36:50;;;;;;;32.53;22.00;;;10.10;99.90;;;;;;5116626;28;20607;-72
2022/10/15 04:39:16;;;;;;;26.80;19.60;;;10.00;99.90;;;;;;5116762;28;20188;-72
2022/10/15 04:41:42;;;;;;;27.93;19.83;;;10.00;99.90;;;;;;5116513;28;20420;-73
2022/10/15 04:44:07;;;;;;;26.17;20.42;;;10.00;99.90;;;;;;5116624;28;20180;-73
2022/10/15 04:46:33;;;;;;;30.40;21.30;;;10.00;99.90;;;;;;5098551;28;20176;-72
2022/10/15 04:48:59;;;;;;;29.93;21.27;;;9.90;99.90;;;;;;5098329;28;20423;-72
2022/10/15 04:51:25;;;;;;;29.03;20.27;;;9.90;99.90;;;;;;5116470;28;20676;-73
2022/10/15 04:53:51;;;;;;;29.48;21.80;;;9.90;99.90;;;;;;5098412;28;20446;-73
2022/10/15 04:56:19;;;;;;;30.47;21.50;;;9.90;99.90;;;;;;5116382;28;20645;-73
2022/10/15 04:58:46;;;;;;;26.40;20.98;;;9.90;99.90;;;;;;5116680;28;20207;-73
2022/10/15 05:01:15;;;;;;;29.40;20.30;;;9.90;99.90;;;;;;5097890;28;20199;-73
2022/10/15 05:03:42;;;;;;;28.98;20.52;;;10.00;99.90;;;;;;5098140;28;20175;-73
2022/10/15 05:06:21;;;;;;;30.58;22.30;;;10.00;99.90;;;;;;5097935;28;20253;-72
2022/10/15 05:08:48;;;;;;;32.65;21.88;;;10.00;99.90;;;;;;5116679;28;20211;-73
2022/10/15 05:11:23;;;;;;;30.63;20.48;;;10.10;99.90;;;;;;5097782;28;20203;-73
2022/10/15 05:13:49;;;;;;;32.20;22.40;;;10.10;99.90;;;;;;5116647;28;20207;-72
2022/10/15 05:16:24;;;;;;;27.08;21.27;;;10.20;99.90;;;;;;5116134;28;20208;-73
2022/10/15 05:18:54;;;;;;;34.30;21.83;;;10.20;99.90;;;;;;5097475;28;20179;-72
2022/10/15 05:21:19;;;;;;;29.42;22.45;;;10.20;99.90;;;;;;5115811;28;20283;-72
2022/10/15 05:23:46;;;;;;;33.70;22.07;;;10.20;99.90;;;;;;5097407;28;20326;-72
2022/10/15 05:26:18;;;;;;;29.63;20.02;;;10.20;99.90;;;;;;5097623;28;20244;-73
2022/10/15 05:28:44;;;;;;;27.52;19.92;;;10.20;99.90;;;;;;5116353;28;20536;-73
2022/10/15 05:31:13;;;;;;;27.50;19.30;;;10.30;99.90;;;;;;5115665;28;20199;-73
2022/10/15 05:33:39;;;;;;;32.70;21.60;;;10.30;99.90;;;;;;5116291;28;20227;-73
2022/10/15 05:36:12;;;;;;;33.33;23.52;;;10.30;99.90;;;;;;5115664;28;20195;-73
2022/10/15 05:38:37;;;;;;;35.22;21.95;;;10.40;99.90;;;;;;5097180;28;20192;-73
2022/10/15 05:41:03;;;;;;;27.63;21.33;;;10.40;99.90;;;;;;5097281;28;20195;-72
2022/10/15 05:43:29;;;;;;;32.60;20.37;;;10.50;99.90;;;;;;5115112;28;20465;-72
2022/10/15 05:45:55;;;;;;;28.00;19.90;;;10.50;99.90;;;;;;5115507;28;20660;-73
2022/10/15 05:48:21;;;;;;;26.48;20.25;;;10.60;99.90;;;;;;5115640;28;20641;-74
2022/10/15 05:50:46;;;;;;;29.90;20.90;;;10.60;99.90;;;;;;5114950;28;20195;-72
2022/10/15 05:53:12;;;;;;;31.97;20.57;;;10.60;99.90;;;;;;5130966;27;20207;-73
2022/10/15 05:55:37;;;;;;;32.00;21.27;;;10.60;99.90;;;;;;5134210;27;20670;-73
2022/10/15 05:58:03;;;;;;;34.40;22.50;;;10.60;99.90;;;;;;5115203;27;20251;-73
2022/10/15 06:00:29;;;;;;;27.05;20.23;;;10.70;99.90;;;;;;5133229;27;20214;-72
2022/10/15 06:02:55;;;;;;;31.08;21.00;;;10.70;99.90;;;;;;5133010;27;20243;-72
2022/10/15 06:05:21;;;;;;;28.57;21.40;;;10.70;99.90;;;;;;5146710;27;20182;-72
2022/10/15 06:07:46;;;;;;;42.50;21.93;;;10.80;99.90;;;;;;5111207;27;20206;-73
2022/10/15 06:10:12;;;;;;;33.53;22.93;;;10.90;99.90;;;;;;5132198;27;20198;-73
2022/10/15 06:12:41;;;;;;;25.73;20.90;;;10.90;99.90;;;;;;5133238;27;20297;-73
2022/10/15 06:15:08;;;;;;;31.10;21.35;;;11.00;99.90;;;;;;5133300;27;20191;-72
2022/10/15 06:17:33;;;;;;;27.58;20.05;;;11.10;99.90;;;;;;5127792;27;20175;-73
2022/10/15 06:19:59;;;;;;;30.50;20.70;;;11.20;99.90;;;;;;5117161;27;20211;-73
2022/10/15 06:22:24;;;;;;;27.10;20.67;;;11.20;99.90;;;;;;5131654;27;20182;-74
2022/10/15 06:24:50;;;;;;;28.10;20.37;;;11.40;99.90;;;;;;5132248;27;20238;-73
2022/10/15 06:27:16;;;;;;;31.27;21.30;;;11.40;99.90;;;;;;5115798;27;20244;-73
2022/10/15 06:29:41;;;;;;;32.33;20.77;;;11.50;99.90;;;;;;5133267;27;20183;-73
2022/10/15 06:32:10;;;;;;;29.60;20.27;;;11.70;99.90;;;;;;5111260;27;20248;-73
2022/10/15 06:34:36;;;;;;;25.83;19.90;;;11.80;99.90;;;;;;5112009;27;20206;-73
2022/10/15 06:37:02;;;;;;;29.10;21.10;;;11.80;99.90;;;;;;5128021;27;20186;-73
2022/10/15 06:39:28;;;;;;;29.27;21.23;;;11.90;99.90;;;;;;5132733;27;20202;-72
2022/10/15 06:41:53;;;;;;;28.83;21.20;;;12.00;99.90;;;;;;5133565;27;20255;-72
2022/10/15 06:44:19;;;;;;;25.50;19.53;;;12.10;99.90;;;;;;5114724;27;20655;-73
2022/10/15 06:46:44;;;;;;;30.30;20.90;;;12.20;99.90;;;;;;5132839;27;20659;-72
2022/10/15 06:49:10;;;;;;;26.30;20.00;;;12.30;99.90;;;;;;5128541;27;20262;-73
2022/10/15 06:51:36;;;;;;;28.70;19.90;;;12.40;99.90;;;;;;5095109;28;20167;-73
2022/10/15 06:54:02;;;;;;;27.30;19.77;;;12.50;99.90;;;;;;5102417;28;20682;-73
2022/10/15 06:56:28;;;;;;;23.10;18.93;;;12.60;99.90;;;;;;5114068;27;20443;-73
2022/10/15 06:58:54;;;;;;;24.70;19.50;;;12.70;99.90;;;;;;5115408;27;20426;-73
2022/10/15 07:01:19;;;;;;;26.57;21.37;;;12.80;99.90;;;;;;5114450;27;20645;-72
2022/10/15 07:03:48;;;;;;;29.20;21.00;;;13.00;99.90;;;;;;5123832;27;20191;-73
2022/10/15 07:06:14;;;;;;;27.90;19.47;;;13.10;99.90;;;;;;5129111;27;20210;-73
2022/10/15 07:08:40;;;;;;;27.30;18.47;;;13.20;99.90;;;;;;5113504;28;20415;-72
2022/10/15 07:11:08;;;;;;;26.60;19.33;;;13.40;99.90;;;;;;5112063;27;20199;-74
2022/10/15 07:13:34;;;;;;;26.53;18.90;;;13.50;99.90;;;;;;5131874;27;20814;-74
2022/10/15 07:16:08;;;;;;;26.67;19.10;;;13.70;99.90;;;;;;5129169;28;20439;-74
2022/10/15 07:18:34;;;;;;;22.73;18.50;;;13.80;99.90;;;;;;5130802;28;20430;-74
2022/10/15 07:21:02;;;;;;;27.53;20.33;;;13.90;99.90;;;;;;5111826;28;20454;-73
2022/10/15 07:23:28;;;;;;;25.17;19.50;;;14.10;99.90;;;;;;5112447;28;20536;-74
2022/10/15 07:25:56;;;;;;;25.50;18.93;;;14.20;99.90;;;;;;5130221;27;20439;-72
2022/10/15 07:28:21;;;;;;;24.77;18.70;;;14.30;99.90;;;;;;5128794;28;20281;-73
2022/10/15 07:30:47;;;;;;;23.23;19.03;;;14.40;99.90;;;;;;5125174;27;20530;-74
2022/10/15 07:33:12;;;;;;;21.50;17.30;;;14.60;99.90;;;;;;5133047;27;20251;-74
2022/10/15 07:35:38;;;;;;;18.50;16.13;;;14.80;99.90;;;;;;5117342;27;20230;-74
2022/10/15 07:38:03;;;;;;;25.70;16.53;;;15.00;99.90;;;;;;5129748;27;20186;-73
2022/10/15 07:40:29;;;;;;;16.90;12.43;;;15.20;99.90;;;;;;5134045;27;20244;-73
2022/10/15 07:42:56;;;;;;;22.47;17.20;;;15.40;99.90;;;;;;5118990;27;20219;-73
2022/10/15 07:45:23;;;;;;;26.37;15.93;;;15.70;99.90;;;;;;5125070;27;20199;-73
2022/10/15 07:47:49;;;;;;;26.13;12.33;;;16.10;99.90;;;;;;5105551;27;20825;-75
2022/10/15 07:50:14;;;;;;;17.63;13.60;;;16.50;99.90;;;;;;5131800;27;20442;-74
2022/10/15 07:52:40;;;;;;;18.30;14.40;;;17.00;99.90;;;;;;5133449;27;20462;-74
2022/10/15 07:55:06;;;;;;;17.83;12.67;;;17.60;99.90;;;;;;5113535;27;20613;-74
2022/10/15 07:57:32;;;;;;;14.60;12.23;;;18.30;99.90;;;;;;5127237;27;20180;-74
2022/10/15 07:59:58;;;;;;;15.17;11.87;;;19.10;99.90;;;;;;5130345;27;20832;-73
2022/10/15 08:02:24;;;;;;;13.80;11.40;;;19.90;99.90;;;;;;5132248;27;20178;-74
2022/10/15 08:04:50;;;;;;;15.60;11.23;;;20.50;99.90;;;;;;5131832;27;20199;-74
2022/10/15 08:07:16;;;;;;;15.43;12.37;;;21.00;99.90;;;;;;5115916;27;20434;-74
2022/10/15 08:09:42;;;;;;;13.37;11.40;;;21.20;99.90;;;;;;5133065;27;20187;-73
2022/10/15 08:12:07;;;;;;;14.97;11.60;;;21.40;99.90;;;;;;5113822;27;20175;-74
2022/10/15 08:14:34;;;;;;;12.40;11.10;;;21.60;99.90;;;;;;5113493;27;20254;-74
2022/10/15 08:17:04;;;;;;;14.13;10.60;;;21.80;99.90;;;;;;5133105;27;20527;-74
2022/10/15 08:19:30;;;;;;;13.80;11.10;;;22.00;99.90;;;;;;5135038;27;20435;-74
2022/10/15 08:21:57;;;;;;;12.17;10.77;;;22.10;99.90;;;;;;5127958;27;20430;-73
2022/10/15 08:24:22;;;;;;;12.90;11.60;;;22.40;99.90;;;;;;5132512;27;20485;-73
2022/10/15 08:26:48;;;;;;;13.47;10.93;;;22.60;99.90;;;;;;5117599;28;20411;-74
2022/10/15 08:29:14;;;;;;;14.50;11.27;;;23.00;99.90;;;;;;5133992;27;20183;-74
2022/10/15 08:31:40;;;;;;;15.33;11.00;;;23.10;99.90;;;;;;5134303;28;20180;-74
2022/10/15 08:34:06;;;;;;;13.03;10.87;;;23.10;99.90;;;;;;5133626;28;20218;-73
2022/10/15 08:36:31;;;;;;;11.17;10.07;;;23.20;99.90;;;;;;5115905;27;20428;-74
2022/10/15 08:38:57;;;;;;;15.43;11.40;;;23.30;99.90;;;;;;5131087;28;20481;-74
2022/10/15 08:42:03;;;;;;;15.07;10.60;;;23.20;99.90;;;;;;5133650;27;20179;-75
2022/10/15 08:44:42;;;;;;;14.60;12.50;;;22.80;99.90;;;;;;5076756;28;20631;-74
2022/10/15 08:47:32;;;;;;;13.80;11.33;;;22.30;99.90;;;;;;5106801;28;20458;-74
2022/10/15 08:50:01;;;;;;;15.00;11.87;;;21.80;99.90;;;;;;5132620;28;20866;-74
2022/10/15 08:52:43;;;;;;;14.37;11.40;;;21.20;99.90;;;;;;5115618;28;20469;-74
2022/10/15 08:55:13;;;;;;;16.30;12.50;;;20.90;99.90;;;;;;5130046;28;20460;-74
2022/10/15 08:58:15;;;;;;;14.20;11.80;;;20.70;99.90;;;;;;5133210;28;20423;-75
2022/10/15 09:01:01;;;;;;;12.60;11.30;;;20.70;99.90;;;;;;5111488;28;20834;-74
2022/10/15 09:03:56;;;;;;;19.87;11.53;;;20.80;99.90;;;;;;5109603;28;20994;-74
2022/10/15 09:06:37;;;;;;;13.87;11.20;;;20.80;99.90;;;;;;5112815;28;20462;-74
2022/10/15 09:09:30;;;;;;;12.63;10.53;;;20.80;99.90;;;;;;5113586;28;20797;-74
2022/10/15 09:12:19;;;;;;;11.97;10.37;;;20.60;99.90;;;;;;5112690;28;20461;-74
2022/10/15 09:14:46;;;;;;;11.50;9.57;;;20.30;99.90;;;;;;5112403;28;21078;-74
2022/10/15 09:17:20;;;;;;;11.70;9.70;;;20.00;99.90;;;;;;5113281;28;20435;-74
2022/10/15 09:19:50;;;;;;;16.50;10.03;;;19.80;99.90;;;;;;5113232;28;20470;-75
2022/10/15 09:22:18;;;;;;;15.67;10.73;;;19.60;99.90;;;;;;5131621;28;20954;-74
2022/10/15 09:24:44;;;;;;;11.90;9.77;;;19.50;99.90;;;;;;5100616;27;290897;-74
2022/10/15 09:27:32;;;;;;;11.50;9.20;;;19.40;99.90;;;;;;5129876;27;20915;-73
2022/10/15 09:30:24;;;;;;;13.27;10.40;;;19.30;99.90;;;;;;5130028;27;20454;-74
2022/10/15 09:33:12;;;;;;;11.60;10.20;;;19.40;99.90;;;;;;5109040;27;20926;-74
2022/10/15 09:36:06;;;;;;;11.50;10.07;;;19.50;99.90;;;;;;5123104;27;21085;-73
2022/10/15 09:38:40;;;;;;;14.07;9.50;;;19.60;99.90;;;;;;5111823;27;20427;-74
2022/10/15 09:41:17;;;;;;;10.37;8.03;;;19.70;99.90;;;;;;5109131;27;20515;-74
2022/10/15 09:43:47;;;;;;;14.03;8.97;;;19.70;99.90;;;;;;5119083;27;20934;-72
2022/10/15 09:46:13;;;;;;;11.10;9.40;;;19.60;99.90;;;;;;5104163;28;20476;-73
2022/10/15 09:48:51;;;;;;;10.33;9.10;;;19.60;99.90;;;;;;5102241;28;20423;-72
2022/10/15 09:51:26;;;;;;;9.70;8.70;;;19.60;99.90;;;;;;5119587;27;20613;-74
2022/10/15 09:54:14;;;;;;;12.30;9.30;;;19.70;99.90;;;;;;5098182;28;20513;-72
2022/10/15 09:56:51;;;;;;;8.90;7.40;;;19.70;99.90;;;;;;5107426;27;20430;-72
2022/10/15 09:59:19;;;;;;;10.77;8.70;;;19.70;99.90;;;;;;5128625;27;20409;-74
2022/10/15 10:02:01;;;;;;;10.10;9.10;;;19.70;99.90;;;;;;5107893;27;20507;-74
2022/10/15 10:04:30;;;;;;;11.40;7.90;;;19.70;99.90;;;;;;5092761;27;22361;-72
2022/10/15 10:07:06;;;;;;;8.87;5.50;;;19.80;99.90;;;;;;5128822;27;20395;-73
2022/10/15 10:09:48;;;;;;;10.10;8.13;;;19.80;99.90;;;;;;5127785;27;20453;-72
2022/10/15 10:12:20;;;;;;;12.60;8.93;;;19.70;99.90;;;;;;5129034;27;20434;-72
2022/10/15 10:15:01;;;;;;;13.40;8.90;;;19.60;99.90;;;;;;5113037;27;20438;-72
2022/10/15 10:17:28;;;;;;;15.00;9.40;;;19.60;99.90;;;;;;5131311;27;20457;-73
2022/10/15 10:20:13;;;;;;;7.70;6.20;;;19.60;99.90;;;;;;5113590;27;20447;-73
2022/10/15 10:22:43;;;;;;;10.70;8.73;;;19.70;99.90;;;;;;5111841;28;20426;-74
2022/10/15 10:25:39;;;;;;;13.40;8.77;;;19.70;99.90;;;;;;5112665;28;20835;-73
2022/10/15 10:28:07;;;;;;;13.23;9.20;;;19.70;99.90;;;;;;5127987;27;20442;-73
2022/10/15 10:30:53;;;;;;;11.17;9.90;;;19.70;99.90;;;;;;5133014;27;20450;-74
2022/10/15 10:33:34;;;;;;;15.53;10.57;;;19.70;99.90;;;;;;5115960;27;20478;-73
2022/10/15 10:36:00;;;;;;;13.10;8.70;;;19.70;99.90;;;;;;5114538;27;20458;-73
2022/10/15 10:38:33;;;;;;;10.53;8.50;;;19.70;99.90;;;;;;5134018;27;20411;-73
2022/10/15 10:41:10;;;;;;;12.50;10.60;;;19.80;99.90;;;;;;5132699;27;20447;-73
2022/10/15 10:43:38;;;;;;;11.20;9.10;;;19.90;99.90;;;;;;5121317;27;20439;-73
2022/10/15 10:46:15;;;;;;;13.60;9.47;;;20.00;99.90;;;;;;5114075;27;20507;-73
2022/10/15 10:48:44;;;;;;;10.50;9.00;;;20.00;99.90;;;;;;5114368;27;20458;-73
2022/10/15 10:51:11;;;;;;;9.80;8.80;;;20.00;99.90;;;;;;5133762;27;20473;-73
2022/10/15 10:54:01;;;;;;;12.10;9.27;;;20.00;99.90;;;;;;5135060;27;20470;-73
2022/10/15 10:56:34;;;;;;;9.70;8.63;;;20.00;99.90;;;;;;5115668;27;21018;-74
2022/10/15 10:59:09;;;;;;;8.27;7.47;;;20.00;99.90;;;;;;5116578;27;20423;-73
2022/10/15 11:01:35;;;;;;;10.37;7.80;;;20.00;99.90;;;;;;5134889;27;20390;-73
2022/10/15 11:04:01;;;;;;;13.03;9.17;;;20.00;99.90;;;;;;5134554;27;20428;-73
2022/10/15 11:06:45;;;;;;;10.43;8.70;;;20.00;99.90;;;;;;5133147;27;20206;-73
2022/10/15 11:09:17;;;;;;;8.13;7.30;;;20.00;99.90;;;;;;5133386;27;20415;-74
2022/10/15 11:12:01;;;;;;;8.87;7.37;;;20.00;99.90;;;;;;5114461;28;20999;-73
2022/10/15 11:14:52;;;;;;;11.20;7.80;;;20.10;99.90;;;;;;5114326;28;20605;-73
2022/10/15 11:17:48;;;;;;;8.63;7.80;;;20.10;99.90;;;;;;5114796;28;20423;-73
2022/10/15 11:20:41;;;;;;;9.60;8.33;;;20.00;99.90;;;;;;5131684;28;20438;-72
2022/10/15 11:23:44;;;;;;;13.57;8.37;;;20.00;99.90;;;;;;5113681;28;20523;-74
2022/10/15 11:26:46;;;;;;;10.13;8.20;;;20.00;99.90;;;;;;5113752;28;20483;-72
2022/10/15 11:29:34;;;;;;;12.23;9.00;;;19.90;99.90;;;;;;5131806;28;20462;-73
2022/10/15 11:32:26;;;;;;;11.13;9.57;;;19.90;99.90;;;;;;5132007;28;20422;-72
2022/10/15 11:35:34;;;;;;;10.87;9.83;;;19.90;99.90;;;;;;5114970;28;20538;-73
2022/10/15 11:38:31;;;;;;;10.73;8.30;;;19.90;99.90;;;;;;5134213;28;20472;-72
2022/10/15 11:41:37;;;;;;;14.67;10.03;;;19.80;99.90;;;;;;5134233;28;20954;-73
2022/10/15 11:44:08;;;;;;;10.60;9.40;;;19.70;99.90;;;;;;5030812;28;20443;-73
2022/10/15 11:47:10;;;;;;;11.00;8.57;;;19.70;99.90;;;;;;5120855;28;20422;-72
2022/10/15 11:49:57;;;;;;;11.17;9.97;;;19.80;99.90;;;;;;5134207;28;20430;-73
2022/10/15 11:52:41;;;;;;;8.37;7.53;;;19.80;99.90;;;;;;5134346;28;20752;-73
2022/10/15 11:55:43;;;;;;;8.90;7.70;;;19.90;99.90;;;;;;5134219;28;20426;-73
2022/10/15 11:58:32;;;;;;;10.00;8.73;;;19.90;99.90;;;;;;5115625;28;20828;-73
2022/10/15 12:01:20;;;;;;;9.43;8.47;;;20.00;99.90;;;;;;5115532;28;20538;-72
2022/10/15 12:04:09;;;;;;;8.83;7.93;;;20.00;99.90;;;;;;5133960;28;20431;-72
2022/10/15 12:06:39;;;;;;;8.87;8.00;;;20.10;99.90;;;;;;5134143;28;20410;-73
2022/10/15 12:09:06;;;;;;;8.90;7.27;;;20.10;99.90;;;;;;5115888;28;20435;-73
2022/10/15 12:11:46;;;;;;;13.10;7.83;;;20.20;99.90;;;;;;5115178;28;20419;-72
2022/10/15 12:14:31;;;;;;;8.90;6.70;;;20.30;99.90;;;;;;5133760;28;20521;-73
2022/10/15 12:17:20;;;;;;;10.00;7.60;;;20.40;99.90;;;;;;5135793;27;20390;-73
2022/10/15 12:19:57;;;;;;;8.63;7.67;;;20.50;99.90;;;;;;5119113;27;20442;-73
2022/10/15 12:22:45;;;;;;;10.73;6.77;;;20.50;99.90;;;;;;5137999;27;20753;-73
2022/10/15 12:25:32;;;;;;;7.40;6.70;;;20.60;99.90;;;;;;5118866;27;20446;-73
2022/10/15 12:28:20;;;;;;;7.50;6.20;;;20.60;99.90;;;;;;5118542;27;20438;-73
2022/10/15 12:31:19;;;;;;;5.30;4.80;;;20.60;99.90;;;;;;5115852;27;20450;-73
2022/10/15 12:33:49;;;;;;;8.73;5.40;;;20.60;99.90;;;;;;5113512;27;20471;-73
2022/10/15 12:36:18;;;;;;;7.93;6.60;;;20.60;99.90;;;;;;5127065;27;20424;-73
2022/10/15 12:38:59;;;;;;;7.60;6.63;;;20.60;99.90;;;;;;5126000;27;20758;-73
2022/10/15 12:41:41;;;;;;;9.03;7.00;;;20.60;99.90;;;;;;5125591;27;20916;-74
2022/10/15 12:44:19;;;;;;;11.57;7.60;;;20.60;99.90;;;;;;5126137;27;20510;-73
2022/10/15 12:46:45;;;;;;;8.40;7.00;;;20.50;99.90;;;;;;5107169;27;20400;-72
2022/10/15 12:49:33;;;;;;;10.53;7.13;;;20.50;99.90;;;;;;5127022;27;20529;-72
2022/10/15 12:52:01;;;;;;;8.20;7.40;;;20.40;99.90;;;;;;5100092;28;20228;-73
2022/10/15 12:54:42;;;;;;;9.20;7.50;;;20.40;99.90;;;;;;5116347;28;20459;-73
2022/10/15 12:57:30;;;;;;;9.83;7.27;;;20.30;99.90;;;;;;5098178;28;20420;-73
2022/10/15 12:59:58;;;;;;;11.27;7.13;;;20.30;99.90;;;;;;5115964;28;20438;-74